Time;durP1;ratioP1;P1;durP2;ratioP2;P2;SDS_P1;SDS_P2;PMS_P1;PMS_P2;Temp;Humidity;BMP_temperature;BMP_pressure;BME280_temperature;BME280_humidity;BME280_pressure;Samples;Min_cycle;Max_cycle;Signal;HPM_P1;HPM_P2
2022/06/17 00:00:20;;;;;;;2.67;2.47;;;20.80;99.90;;;;;;10337398;28;20213;-94
2022/06/17 00:05:24;;;;;;;2.80;2.60;;;20.80;99.90;;;;;;10335612;28;20213;-95
2022/06/17 00:10:26;;;;;;;2.85;2.40;;;20.80;99.90;;;;;;10321076;28;20260;-94
2022/06/17 00:15:29;;;;;;;2.67;2.47;;;20.80;99.90;;;;;;10341324;28;20201;-95
2022/06/17 00:20:34;;;;;;;2.78;2.53;;;20.80;99.90;;;;;;10335615;28;20271;-94
2022/06/17 00:25:37;;;;;;;2.67;2.47;;;20.80;99.90;;;;;;10333841;28;20217;-94
2022/06/17 00:30:41;;;;;;;2.78;2.42;;;20.80;99.90;;;;;;10333847;28;20221;-94
2022/06/17 00:35:48;;;;;;;2.10;2.00;;;20.70;99.90;;;;;;10333554;28;20205;-94
2022/06/17 00:40:53;;;;;;;2.60;2.40;;;20.70;99.90;;;;;;10334142;28;20259;-96
2022/06/17 00:46:19;;;;;;;2.85;2.42;;;20.70;99.90;;;;;;10333601;28;20540;-95
2022/06/17 00:51:24;;;;;;;2.50;2.30;;;20.70;99.90;;;;;;10334500;28;20233;-95
2022/06/17 00:56:34;;;;;;;2.58;2.25;;;20.70;99.90;;;;;;10335265;28;20244;-94
2022/06/17 01:01:50;;;;;;;3.13;2.88;;;20.70;99.90;;;;;;10335276;28;20212;-94
2022/06/17 01:07:20;;;;;;;2.05;1.90;;;20.70;99.90;;;;;;10337867;28;20252;-95
2022/06/17 01:12:33;;;;;;;2.47;2.28;;;20.70;99.90;;;;;;10334169;28;20597;-94
2022/06/17 01:17:38;;;;;;;1.80;1.67;;;20.70;99.90;;;;;;10333495;28;20578;-95
2022/06/17 01:22:52;;;;;;;3.80;2.17;;;20.70;99.90;;;;;;10332993;28;20209;-94
2022/06/17 01:28:13;;;;;;;2.20;2.00;;;20.70;99.80;;;;;;10332619;28;20255;-95
2022/06/17 01:33:29;;;;;;;2.25;2.13;;;20.70;99.80;;;;;;10331664;28;20682;-94
2022/06/17 01:38:34;;;;;;;2.25;2.05;;;20.60;99.70;;;;;;10331503;28;20243;-94
2022/06/17 01:43:48;;;;;;;2.28;2.08;;;20.60;99.70;;;;;;10332153;28;20208;-94
2022/06/17 01:48:59;;;;;;;2.05;1.88;;;20.60;99.60;;;;;;10331867;28;20263;-95
2022/06/17 01:54:07;;;;;;;2.35;2.03;;;20.70;99.60;;;;;;10315451;28;20214;-94
2022/06/17 01:59:21;;;;;;;2.08;1.88;;;20.70;99.60;;;;;;10330814;28;20197;-95
2022/06/17 02:04:30;;;;;;;2.47;2.28;;;20.60;99.50;;;;;;10330770;28;20201;-96
2022/06/17 02:09:32;;;;;;;1.83;1.73;;;20.70;99.50;;;;;;10330969;28;20233;-95
2022/06/17 02:14:35;;;;;;;2.70;2.08;;;20.60;99.40;;;;;;10330844;28;20205;-94
2022/06/17 02:20:01;;;;;;;1.98;1.83;;;20.60;99.40;;;;;;10317464;28;20803;-95
2022/06/17 02:25:15;;;;;;;1.80;1.70;;;20.70;99.40;;;;;;10318963;28;20268;-95
2022/06/17 02:30:19;;;;;;;2.47;1.58;;;20.60;99.30;;;;;;10299656;28;20241;-94
2022/06/17 02:35:43;;;;;;;2.42;2.22;;;20.60;99.30;;;;;;10294998;28;20518;-93
2022/06/17 02:40:51;;;;;;;2.40;2.20;;;20.60;99.20;;;;;;10303939;28;20213;-95
2022/06/17 02:46:10;;;;;;;2.60;2.40;;;20.60;99.20;;;;;;10318808;28;20204;-94
2022/06/17 02:51:14;;;;;;;2.00;1.80;;;20.60;99.20;;;;;;10303592;28;20298;-94
2022/06/17 02:56:24;;;;;;;1.98;1.83;;;20.60;99.10;;;;;;10329676;28;20686;-95
2022/06/17 03:01:30;;;;;;;1.95;1.77;;;20.60;99.10;;;;;;10344458;28;20228;-94
2022/06/17 03:06:52;;;;;;;2.33;2.10;;;20.60;99.00;;;;;;10362317;28;20236;-94
2022/06/17 03:11:56;;;;;;;2.00;1.90;;;20.60;99.00;;;;;;10345791;28;20256;-95
2022/06/17 03:17:05;;;;;;;1.90;1.80;;;20.60;98.90;;;;;;10338066;28;20291;-94
2022/06/17 03:22:12;;;;;;;2.00;1.73;;;20.60;98.80;;;;;;10338271;28;20209;-96
2022/06/17 03:27:32;;;;;;;1.83;1.73;;;20.70;98.80;;;;;;10339104;28;20213;-96
2022/06/17 03:32:39;;;;;;;2.03;1.83;;;20.70;98.70;;;;;;10324395;28;20251;-96
2022/06/17 03:38:07;;;;;;;2.05;1.90;;;20.70;98.70;;;;;;10341949;28;20209;-95
2022/06/17 03:43:19;;;;;;;1.92;1.58;;;20.70;98.60;;;;;;10340104;28;20205;-94
2022/06/17 03:48:33;;;;;;;1.90;1.67;;;20.80;98.40;;;;;;10343399;28;20201;-95
2022/06/17 03:53:37;;;;;;;2.60;2.00;;;20.90;98.30;;;;;;10344712;28;20271;-95
2022/06/17 03:58:41;;;;;;;1.67;1.58;;;20.80;98.20;;;;;;10348350;28;20208;-94
2022/06/17 04:03:57;;;;;;;1.67;1.58;;;20.90;98.20;;;;;;10352171;28;20209;-95
2022/06/17 04:09:25;;;;;;;2.25;2.05;;;20.90;98.00;;;;;;10362238;28;20252;-94
2022/06/17 04:15:07;;;;;;;2.22;1.65;;;21.00;98.00;;;;;;10364009;28;20224;-95
2022/06/17 04:20:23;;;;;;;2.10;1.58;;;21.00;98.00;;;;;;10345263;28;20279;-94
2022/06/17 04:25:55;;;;;;;4.50;2.17;;;20.90;98.00;;;;;;10343885;28;20208;-94
2022/06/17 04:31:03;;;;;;;2.10;1.90;;;21.10;97.80;;;;;;10343925;28;20237;-94
2022/06/17 04:36:33;;;;;;;1.98;1.85;;;21.20;97.60;;;;;;10340964;28;20228;-95
2022/06/17 04:41:38;;;;;;;3.38;2.03;;;21.00;97.80;;;;;;10340878;28;20629;-94
2022/06/17 04:47:20;;;;;;;1.70;1.60;;;21.00;97.80;;;;;;10318084;28;20208;-94
2022/06/17 04:52:36;;;;;;;1.50;1.40;;;20.70;98.30;;;;;;10325407;28;20244;-95
2022/06/17 04:57:56;;;;;;;2.75;1.92;;;20.80;98.30;;;;;;10321382;28;20202;-95
2022/06/17 05:02:59;;;;;;;2.25;1.70;;;20.90;97.90;;;;;;10330478;28;20201;-95
2022/06/17 05:08:34;;;;;;;2.10;1.88;;;20.80;98.50;;;;;;10363122;28;20205;-94
2022/06/17 05:13:48;;;;;;;3.05;1.92;;;20.40;99.00;;;;;;10343241;28;20251;-95
2022/06/17 05:18:51;;;;;;;2.53;2.08;;;19.80;99.70;;;;;;10349286;28;20618;-95
2022/06/17 05:23:57;;;;;;;3.03;1.98;;;20.40;98.80;;;;;;10345452;28;20554;-94
2022/06/17 05:29:02;;;;;;;2.03;1.83;;;19.70;99.90;;;;;;10334050;28;20213;-95
2022/06/17 05:34:11;;;;;;;2.35;2.08;;;20.40;99.90;;;;;;10337622;28;20229;-94
2022/06/17 05:39:16;;;;;;;2.30;2.10;;;20.80;98.90;;;;;;10341903;28;20626;-95
2022/06/17 05:44:20;;;;;;;2.10;1.88;;;20.90;98.70;;;;;;10334564;28;20201;-95
2022/06/17 05:49:31;;;;;;;1.70;1.60;;;20.60;99.10;;;;;;10339370;28;20618;-94
2022/06/17 05:55:07;;;;;;;3.35;2.20;;;20.60;99.30;;;;;;10353401;28;20209;-95
2022/06/17 06:00:11;;;;;;;4.70;2.35;;;20.20;99.80;;;;;;10355171;28;20224;-94
2022/06/17 06:05:23;;;;;;;3.10;1.90;;;20.60;99.40;;;;;;10363248;28;20204;-95
2022/06/17 06:10:29;;;;;;;2.40;2.20;;;20.80;99.20;;;;;;10334588;28;20633;-95
2022/06/17 06:15:36;;;;;;;2.95;2.08;;;20.80;99.00;;;;;;10342369;28;20252;-96
2022/06/17 06:21:04;;;;;;;4.13;1.80;;;21.00;98.80;;;;;;10337947;28;20271;-94
2022/06/17 06:26:14;;;;;;;4.95;2.13;;;20.70;99.80;;;;;;10343426;28;20260;-94
2022/06/17 06:31:21;;;;;;;4.72;2.70;;;20.20;99.90;;;;;;10324923;28;20221;-94
2022/06/17 06:36:24;;;;;;;1.80;1.70;;;20.40;99.90;;;;;;10299585;28;20225;-95
2022/06/17 06:41:28;;;;;;;4.13;2.15;;;20.90;99.50;;;;;;10317045;28;20225;-95
2022/06/17 06:46:32;;;;;;;3.83;1.98;;;20.60;99.70;;;;;;10338929;28;20566;-94
2022/06/17 06:51:38;;;;;;;2.92;2.22;;;20.70;99.50;;;;;;10339131;28;20694;-94
2022/06/17 06:56:40;;;;;;;2.40;2.15;;;20.60;99.90;;;;;;10354704;28;20242;-95
2022/06/17 07:01:45;;;;;;;2.00;1.80;;;20.60;99.90;;;;;;10340731;28;20255;-96
2022/06/17 07:06:48;;;;;;;3.33;2.30;;;21.10;99.30;;;;;;10340853;28;20628;-94
2022/06/17 07:11:51;;;;;;;4.45;2.70;;;21.00;99.10;;;;;;10323737;28;20229;-95
2022/06/17 07:16:54;;;;;;;3.17;1.88;;;20.70;99.90;;;;;;10339150;28;20287;-95
2022/06/17 07:21:57;;;;;;;7.10;1.80;;;21.10;99.20;;;;;;10341517;28;20205;-93
2022/06/17 07:27:00;;;;;;;3.13;1.95;;;20.70;99.90;;;;;;10347383;28;20209;-95
2022/06/17 07:32:03;;;;;;;5.80;2.10;;;21.10;99.60;;;;;;10341599;28;20229;-94
2022/06/17 07:42:37;;;;;;;2.45;1.95;;;21.20;99.10;;;;;;10356564;28;20209;-94
2022/06/17 07:47:42;;;;;;;2.10;2.00;;;21.40;98.50;;;;;;10365653;28;20248;-94
2022/06/17 07:52:45;;;;;;;4.25;2.40;;;21.50;98.40;;;;;;10358327;28;20225;-96
2022/06/17 07:57:49;;;;;;;2.97;2.17;;;21.40;97.90;;;;;;10337704;28;20692;-93
2022/06/17 08:02:51;;;;;;;4.97;2.25;;;21.50;97.10;;;;;;10321022;28;20204;-93
2022/06/17 08:07:55;;;;;;;5.10;2.75;;;21.10;98.30;;;;;;10337842;28;20279;-94
2022/06/17 08:12:58;;;;;;;3.95;2.42;;;21.50;97.60;;;;;;10341189;28;20646;-94
2022/06/17 08:18:01;;;;;;;5.78;2.50;;;21.50;97.80;;;;;;10350322;28;20229;-94
2022/06/17 08:23:06;;;;;;;3.85;1.88;;;21.40;98.10;;;;;;10336118;28;20239;-94
2022/06/17 08:28:11;;;;;;;6.75;2.00;;;21.30;97.40;;;;;;10336246;28;20204;-94
2022/06/17 08:33:14;;;;;;;2.13;1.80;;;21.50;96.30;;;;;;10353981;28;20229;-92
2022/06/17 08:38:41;;;;;;;2.17;1.98;;;21.50;95.90;;;;;;10342720;28;20678;-94
2022/06/17 08:43:49;;;;;;;2.88;1.90;;;21.60;97.60;;;;;;10322925;28;20577;-95
2022/06/17 08:49:26;;;;;;;1.98;1.83;;;21.50;97.00;;;;;;10330958;28;20578;-95
2022/06/17 08:54:59;;;;;;;2.20;2.00;;;21.50;97.00;;;;;;10337664;28;20275;-94
2022/06/17 09:00:13;;;;;;;1.70;1.60;;;21.50;97.30;;;;;;10337233;28;20204;-94
2022/06/17 09:05:18;;;;;;;5.30;1.15;;;21.50;96.80;;;;;;10339916;28;20247;-93
2022/06/17 09:10:31;;;;;;;2.33;1.98;;;21.40;95.50;;;;;;10364142;28;20197;-94
2022/06/17 09:15:49;;;;;;;5.85;2.20;;;21.70;96.20;;;;;;10343529;28;20229;-95
2022/06/17 09:21:18;;;;;;;5.57;2.40;;;21.80;95.30;;;;;;10332955;28;20228;-93
2022/06/17 09:26:27;;;;;;;2.30;2.10;;;22.00;96.40;;;;;;10334429;28;20201;-96
2022/06/17 09:31:47;;;;;;;1.55;1.45;;;21.90;94.90;;;;;;10347940;28;20282;-96
2022/06/17 09:37:05;;;;;;;3.25;1.80;;;22.00;96.00;;;;;;10339495;28;20945;-95
2022/06/17 09:42:14;;;;;;;1.95;1.85;;;21.80;95.80;;;;;;10340228;28;20217;-94
2022/06/17 09:48:15;;;;;;;2.05;1.83;;;21.90;96.10;;;;;;10339429;28;20212;-95
2022/06/17 09:53:24;;;;;;;5.82;2.17;;;21.70;94.90;;;;;;10258054;28;20727;-95
2022/06/17 09:58:43;;;;;;;4.20;1.67;;;22.10;93.60;;;;;;10252656;28;20287;-95
2022/06/17 10:03:46;;;;;;;2.53;1.67;;;22.00;95.60;;;;;;10253258;28;20264;-95
2022/06/17 10:09:13;;;;;;;2.38;1.85;;;21.90;95.30;;;;;;10275128;28;20265;-95
2022/06/17 10:14:21;;;;;;;1.90;1.80;;;22.00;95.90;;;;;;10256465;28;20648;-94
2022/06/17 10:19:26;;;;;;;2.17;1.88;;;22.20;94.90;;;;;;10239929;29;20230;-94
2022/06/17 10:24:48;;;;;;;1.92;1.73;;;22.10;95.30;;;;;;10262874;28;20650;-95
2022/06/17 10:30:08;;;;;;;2.83;1.90;;;22.20;95.40;;;;;;10293025;28;20248;-95
2022/06/17 10:35:31;;;;;;;3.30;2.75;;;22.20;94.20;;;;;;10333081;28;20217;-94
2022/06/17 10:40:37;;;;;;;5.80;1.90;;;22.30;92.50;;;;;;10351605;28;20213;-94
2022/06/17 10:45:40;;;;;;;3.85;2.15;;;22.20;91.30;;;;;;10339118;28;20200;-95
2022/06/17 10:50:43;;;;;;;2.25;2.00;;;22.30;94.60;;;;;;10323837;28;20205;-96
2022/06/17 10:55:53;;;;;;;2.03;1.45;;;22.40;94.30;;;;;;10320911;28;20229;-95
2022/06/17 11:01:16;;;;;;;2.08;1.88;;;22.50;93.50;;;;;;10319689;28;20205;-94
2022/06/17 11:06:22;;;;;;;2.42;1.55;;;22.50;93.70;;;;;;10330636;28;20204;-94
2022/06/17 11:12:10;;;;;;;2.95;1.80;;;22.70;91.90;;;;;;10334852;28;20220;-94
2022/06/17 11:17:15;;;;;;;2.13;2.03;;;22.40;93.40;;;;;;10335863;28;20586;-95
2022/06/17 11:22:35;;;;;;;3.03;1.90;;;22.40;92.30;;;;;;10332724;28;20205;-95
2022/06/17 11:27:53;;;;;;;2.28;1.63;;;22.60;93.70;;;;;;10298989;28;20236;-94
2022/06/17 11:32:58;;;;;;;4.05;1.85;;;23.00;90.20;;;;;;10309880;28;20234;-94
2022/06/17 11:38:10;;;;;;;1.35;1.25;;;22.90;90.30;;;;;;10323730;28;20201;-95
2022/06/17 11:43:43;;;;;;;2.90;2.33;;;22.80;91.90;;;;;;10324645;28;20580;-95
2022/06/17 11:48:50;;;;;;;3.63;1.88;;;22.80;92.70;;;;;;10338894;28;20552;-94
2022/06/17 11:53:59;;;;;;;2.25;1.90;;;22.90;90.60;;;;;;9991047;28;10000170;-95
2022/06/17 11:59:31;;;;;;;4.82;1.70;;;23.00;92.50;;;;;;10337305;28;20197;-93
2022/06/17 12:04:38;;;;;;;2.88;1.85;;;23.40;91.60;;;;;;10323490;28;20205;-94
2022/06/17 12:09:42;;;;;;;2.50;2.15;;;23.00;92.10;;;;;;10339435;28;20209;-93
2022/06/17 12:14:58;;;;;;;1.67;1.52;;;22.70;91.90;;;;;;10339483;28;20263;-93
2022/06/17 12:20:01;;;;;;;2.50;2.17;;;23.40;88.90;;;;;;10342285;28;20399;-94
2022/06/17 12:25:58;;;;;;;1.90;1.80;;;23.00;92.20;;;;;;10345057;28;20205;-95
2022/06/17 12:31:17;;;;;;;4.45;1.73;;;22.80;92.40;;;;;;10310731;28;20208;-93
2022/06/17 12:36:28;;;;;;;2.80;2.20;;;23.00;88.10;;;;;;10363175;28;20275;-93
2022/06/17 12:41:50;;;;;;;4.90;1.95;;;23.30;91.00;;;;;;10339510;28;20545;-94
2022/06/17 12:47:19;;;;;;;3.67;1.83;;;23.20;91.30;;;;;;10338531;28;20232;-94
2022/06/17 12:58:49;;;;;;;2.80;1.67;;;23.30;90.20;;;;;;10333162;28;20209;-94
2022/06/17 13:04:06;;;;;;;2.08;1.83;;;23.40;89.00;;;;;;10320243;28;20193;-91
2022/06/17 13:09:41;;;;;;;2.15;2.05;;;23.40;89.90;;;;;;10332996;28;20220;-90
2022/06/17 13:15:08;;;;;;;5.80;1.80;;;23.30;90.60;;;;;;10294255;28;20225;-91
2022/06/17 13:20:19;;;;;;;2.85;1.90;;;23.00;90.70;;;;;;10331742;28;20279;-93
2022/06/17 13:25:43;;;;;;;3.45;1.88;;;23.20;90.50;;;;;;10337037;28;20196;-93
2022/06/17 13:30:54;;;;;;;2.20;1.83;;;23.50;90.40;;;;;;10314015;28;20208;-93
2022/06/17 13:36:11;;;;;;;3.40;1.40;;;23.70;87.80;;;;;;10330801;28;20628;-92
2022/06/17 13:41:19;;;;;;;2.85;1.45;;;23.80;84.20;;;;;;10310295;28;20205;-93
2022/06/17 13:46:51;;;;;;;7.38;1.90;;;23.70;88.40;;;;;;10329857;28;20209;-92
2022/06/17 13:52:26;;;;;;;4.15;1.50;;;23.80;87.00;;;;;;10319585;28;20240;-92
2022/06/17 13:57:32;;;;;;;2.97;2.60;;;23.90;89.50;;;;;;10329402;28;20201;-93
2022/06/17 14:02:57;;;;;;;4.05;1.98;;;24.20;86.70;;;;;;10329063;28;20208;-93
2022/06/17 14:08:09;;;;;;;2.03;1.77;;;23.80;88.40;;;;;;10328937;28;20204;-93
2022/06/17 14:13:15;;;;;;;3.13;2.10;;;23.60;90.10;;;;;;10331237;28;20220;-92
2022/06/17 14:18:44;;;;;;;2.97;1.77;;;23.70;89.70;;;;;;10337919;28;20251;-93
2022/06/17 14:23:55;;;;;;;2.05;1.70;;;23.50;88.80;;;;;;10336904;28;20230;-93
2022/06/17 14:29:16;;;;;;;2.25;1.85;;;23.70;86.20;;;;;;10336806;28;20205;-91
2022/06/17 14:34:22;;;;;;;6.43;1.67;;;23.40;89.00;;;;;;10318182;28;20636;-91
2022/06/17 14:39:34;;;;;;;1.98;1.60;;;23.60;87.10;;;;;;10334445;28;20205;-91
2022/06/17 14:44:40;;;;;;;2.72;1.80;;;23.80;85.70;;;;;;10351580;28;20259;-92
2022/06/17 14:49:53;;;;;;;2.35;1.95;;;23.50;88.60;;;;;;10350438;28;20663;-91
2022/06/17 14:54:58;;;;;;;3.35;1.35;;;23.50;82.20;;;;;;10334228;28;20284;-91
2022/06/17 15:00:12;;;;;;;2.65;1.55;;;23.90;82.20;;;;;;10332996;28;20228;-92
2022/06/17 15:05:35;;;;;;;1.65;1.55;;;23.70;87.10;;;;;;10334327;28;20617;-91
2022/06/17 15:10:38;;;;;;;3.30;1.63;;;23.70;84.40;;;;;;10333085;28;20213;-91
2022/06/17 15:15:45;;;;;;;2.25;1.98;;;23.90;80.10;;;;;;10334558;28;20275;-91
2022/06/17 15:20:55;;;;;;;2.83;1.90;;;23.70;86.00;;;;;;10332354;28;20201;-92
2022/06/17 15:26:07;;;;;;;3.13;1.40;;;23.60;88.90;;;;;;10346439;28;20204;-91
2022/06/17 15:31:13;;;;;;;2.40;1.60;;;23.70;84.60;;;;;;10332200;28;20267;-92
2022/06/17 15:36:22;;;;;;;1.85;1.70;;;23.60;89.00;;;;;;10332630;28;20229;-93
2022/06/17 15:41:28;;;;;;;1.90;1.73;;;23.70;86.10;;;;;;10334342;28;20209;-91
2022/06/17 15:46:33;;;;;;;1.67;1.58;;;23.90;86.70;;;;;;10347380;28;20248;-92
2022/06/17 15:51:42;;;;;;;2.88;1.45;;;23.80;83.30;;;;;;10347873;28;20217;-91
2022/06/17 15:56:50;;;;;;;1.73;1.63;;;23.70;83.80;;;;;;10330325;28;20303;-90
2022/06/17 16:02:24;;;;;;;2.75;1.65;;;23.60;85.90;;;;;;10313644;28;20236;-90
2022/06/17 16:07:31;;;;;;;3.35;1.38;;;23.70;83.90;;;;;;10324049;28;20752;-91
2022/06/17 16:12:36;;;;;;;3.03;1.67;;;23.70;78.30;;;;;;10328999;28;20244;-91
2022/06/17 16:17:43;;;;;;;1.60;1.50;;;23.80;85.90;;;;;;10312748;28;20229;-91
2022/06/17 16:22:47;;;;;;;3.83;1.70;;;23.60;84.60;;;;;;10338318;28;20661;-91
2022/06/17 16:27:52;;;;;;;2.05;1.85;;;23.60;86.00;;;;;;10344242;28;20706;-91
2022/06/17 16:33:19;;;;;;;1.80;1.40;;;23.60;82.30;;;;;;9982816;28;9999674;-91
2022/06/17 16:38:25;;;;;;;3.25;1.42;;;23.70;79.60;;;;;;10327434;28;20229;-90
2022/06/17 16:49:00;;;;;;;1.85;1.35;;;23.60;84.20;;;;;;10344784;28;20245;-90
2022/06/17 16:54:03;;;;;;;3.00;1.75;;;23.50;82.10;;;;;;10344529;28;20256;-90
2022/06/17 16:59:06;;;;;;;2.88;1.90;;;23.90;81.10;;;;;;10328724;28;20267;-90
2022/06/17 17:04:09;;;;;;;2.42;1.33;;;23.70;81.00;;;;;;10328879;28;20228;-89
2022/06/17 17:09:12;;;;;;;4.95;1.73;;;23.50;80.30;;;;;;10328044;28;20213;-90
2022/06/17 17:14:15;;;;;;;2.45;2.22;;;23.60;81.20;;;;;;10311321;28;20256;-91
2022/06/17 17:19:18;;;;;;;2.42;1.73;;;23.60;86.60;;;;;;10327376;28;20237;-91
2022/06/17 17:24:23;;;;;;;5.20;2.20;;;23.50;86.40;;;;;;10326641;28;20208;-90
2022/06/17 17:29:29;;;;;;;1.92;1.70;;;23.40;81.60;;;;;;10326688;28;20575;-91
2022/06/17 17:34:32;;;;;;;2.30;1.70;;;23.30;86.50;;;;;;10326783;28;20666;-90
2022/06/17 17:39:35;;;;;;;2.83;1.83;;;23.30;82.40;;;;;;10325959;28;20236;-90
2022/06/17 17:44:37;;;;;;;8.40;1.95;;;23.20;85.00;;;;;;10310862;28;20252;-90
2022/06/17 17:49:51;;;;;;;2.15;2.00;;;23.10;85.00;;;;;;10326735;28;20213;-89
2022/06/17 17:54:54;;;;;;;1.90;1.80;;;23.10;88.00;;;;;;10326412;28;20318;-92
2022/06/17 17:59:59;;;;;;;2.40;1.85;;;23.10;89.20;;;;;;10327376;28;20233;-90
2022/06/17 18:05:03;;;;;;;2.92;2.47;;;23.00;86.50;;;;;;10326651;28;20244;-90
2022/06/17 18:10:08;;;;;;;1.83;1.73;;;22.90;90.10;;;;;;10309985;28;20201;-90
2022/06/17 18:15:12;;;;;;;2.42;2.10;;;22.70;90.20;;;;;;10326145;28;20265;-91
2022/06/17 18:20:18;;;;;;;2.17;1.90;;;22.60;90.40;;;;;;10308950;28;20319;-90
2022/06/17 18:25:23;;;;;;;5.30;1.80;;;22.50;90.10;;;;;;10326789;28;20292;-93
2022/06/17 18:30:26;;;;;;;4.25;2.28;;;22.40;89.90;;;;;;10330259;28;20209;-94
2022/06/17 18:35:40;;;;;;;2.42;2.22;;;22.20;90.10;;;;;;10312185;28;20224;-92
2022/06/17 18:40:42;;;;;;;2.20;2.00;;;22.20;91.90;;;;;;10326881;28;20212;-92
2022/06/17 18:45:46;;;;;;;2.42;2.22;;;22.00;91.10;;;;;;10326517;28;20259;-92
2022/06/17 18:50:49;;;;;;;3.70;2.63;;;21.90;92.80;;;;;;10328146;28;20208;-91
2022/06/17 18:55:52;;;;;;;2.13;1.92;;;21.80;92.70;;;;;;10341985;28;20279;-92
2022/06/17 19:00:55;;;;;;;7.72;2.20;;;21.70;93.50;;;;;;10327908;28;20201;-92
2022/06/17 19:05:59;;;;;;;10.80;2.42;;;21.60;92.90;;;;;;10332880;28;20267;-93
2022/06/17 19:21:49;;;;;;;2.55;2.33;;;21.40;94.90;;;;;;10333324;28;20229;-92
2022/06/17 19:26:52;;;;;;;1.90;1.80;;;21.40;95.10;;;;;;10349484;28;20240;-94
2022/06/17 19:31:54;;;;;;;2.25;2.05;;;21.40;95.20;;;;;;10333825;28;20228;-94
2022/06/17 19:37:00;;;;;;;2.10;1.98;;;21.40;95.40;;;;;;10349639;28;20225;-93
2022/06/17 19:42:03;;;;;;;1.98;1.88;;;21.40;95.60;;;;;;10334357;28;20554;-93
2022/06/17 19:47:13;;;;;;;2.20;2.00;;;21.30;95.70;;;;;;10335883;28;20209;-90
2022/06/17 19:52:33;;;;;;;2.13;1.92;;;21.30;95.90;;;;;;10332760;28;20669;-90
2022/06/17 19:57:36;;;;;;;4.97;2.00;;;21.30;96.00;;;;;;10314940;28;20283;-92
2022/06/17 20:02:41;;;;;;;4.70;3.35;;;21.20;96.10;;;;;;10331974;28;20201;-91
2022/06/17 20:07:44;;;;;;;2.13;2.00;;;21.20;95.30;;;;;;10332907;28;20209;-92
2022/06/17 20:12:49;;;;;;;2.08;1.95;;;21.20;96.50;;;;;;10330614;28;20303;-92
2022/06/17 20:17:54;;;;;;;2.30;2.10;;;21.20;96.50;;;;;;10329357;28;20264;-92
2022/06/17 20:22:57;;;;;;;2.28;2.08;;;21.20;96.60;;;;;;10330474;28;20262;-91
2022/06/17 20:28:01;;;;;;;2.22;2.03;;;21.20;96.60;;;;;;10314152;28;20240;-92
2022/06/17 20:33:04;;;;;;;2.47;2.28;;;21.20;96.70;;;;;;10329425;28;20688;-90
2022/06/17 20:38:07;;;;;;;2.50;2.30;;;21.20;96.80;;;;;;10314300;28;20229;-91
2022/06/17 20:43:11;;;;;;;1.80;1.70;;;21.10;96.90;;;;;;10330561;28;20201;-91
2022/06/17 20:53:38;;;;;;;2.30;2.10;;;21.10;97.10;;;;;;10329792;28;20571;-92
2022/06/17 20:58:41;;;;;;;2.35;2.15;;;21.00;97.20;;;;;;10312836;28;20205;-91
2022/06/17 21:03:44;;;;;;;2.50;2.28;;;21.00;97.30;;;;;;10328603;28;20248;-90
2022/06/17 21:08:49;;;;;;;2.63;2.25;;;21.00;97.40;;;;;;10312877;28;20205;-92
2022/06/17 21:13:52;;;;;;;3.15;2.00;;;21.00;97.40;;;;;;10312835;28;20264;-92
2022/06/17 21:18:54;;;;;;;2.45;2.25;;;21.00;97.50;;;;;;10328506;28;20220;-89
2022/06/17 21:23:57;;;;;;;2.50;2.33;;;21.00;97.60;;;;;;10330794;28;20213;-91
2022/06/17 21:29:01;;;;;;;2.40;2.20;;;21.00;97.60;;;;;;10332242;28;20209;-90
2022/06/17 21:34:04;;;;;;;3.90;2.50;;;21.00;97.70;;;;;;10339967;28;20260;-90
2022/06/17 21:39:13;;;;;;;3.17;2.30;;;21.00;97.70;;;;;;10339399;28;20200;-90
2022/06/17 21:44:19;;;;;;;2.63;2.42;;;21.00;98.10;;;;;;10296302;28;20263;-91
2022/06/17 21:49:22;;;;;;;2.40;2.20;;;20.90;97.90;;;;;;10288579;28;20256;-91
2022/06/17 21:54:30;;;;;;;3.00;2.28;;;20.90;98.20;;;;;;10302957;28;20287;-91
2022/06/17 21:59:48;;;;;;;2.58;2.38;;;20.90;98.00;;;;;;10327956;28;20259;-91
2022/06/17 22:04:51;;;;;;;2.80;2.58;;;20.90;98.00;;;;;;10312322;28;20249;-92
2022/06/17 22:09:55;;;;;;;2.67;2.47;;;20.90;98.10;;;;;;10327012;28;20209;-92
2022/06/17 22:14:58;;;;;;;2.30;2.10;;;20.90;98.20;;;;;;10345014;28;20213;-91
2022/06/17 22:20:01;;;;;;;2.55;2.35;;;20.90;98.30;;;;;;10333292;28;20225;-92
2022/06/17 22:25:23;;;;;;;2.92;2.67;;;20.90;98.30;;;;;;10326548;28;20205;-92
2022/06/17 22:30:26;;;;;;;2.53;2.33;;;20.90;98.40;;;;;;10347885;28;20197;-91
2022/06/17 22:35:29;;;;;;;2.45;2.25;;;20.90;98.40;;;;;;10345056;28;20244;-91
2022/06/17 22:40:33;;;;;;;3.88;2.53;;;20.90;98.50;;;;;;10357045;28;20633;-91
2022/06/17 22:45:52;;;;;;;2.63;2.38;;;20.80;98.60;;;;;;10375255;28;20582;-90
2022/06/17 22:50:59;;;;;;;2.50;2.30;;;20.90;98.60;;;;;;10370639;28;20239;-92
2022/06/17 22:56:13;;;;;;;2.58;2.38;;;20.80;98.70;;;;;;10370252;28;20221;-91
2022/06/17 23:01:41;;;;;;;2.92;2.42;;;20.80;98.70;;;;;;10342892;23;20272;-92
2022/06/17 23:23:38;;;;;;;3.15;2.63;;;20.80;99.00;;;;;;10285602;23;20294;-92
2022/06/17 23:28:41;;;;;;;3.15;2.85;;;20.80;99.00;;;;;;10264785;28;20210;-92
2022/06/17 23:33:47;;;;;;;2.63;2.42;;;20.80;99.00;;;;;;10264243;28;20265;-94
2022/06/17 23:38:51;;;;;;;4.55;2.65;;;20.80;99.10;;;;;;10278855;28;20230;-91
2022/06/17 23:43:55;;;;;;;3.40;2.78;;;20.80;99.10;;;;;;10279290;28;20214;-91
2022/06/17 23:49:12;;;;;;;2.63;2.42;;;20.80;99.10;;;;;;10268334;28;20202;-91
